»·PEaware :: N984CP KLGB-KSNA

N984CP :: KLGB-KSNA

FLIGHT INFORMATION

Flight Status: Arrived
Operator: Privately registered:
United States
More flights under this callsign
Pilot: John Paul M. (29777)
Aircraft: CESSNA 172 SKYHAWK
(C172)
More flights by this aircraft type
Origin: KLGB Long Beach
United States
Destination: KSNA John Wayne-Orange Co
United States
More flights between these airports :: More routes between these airports
Route: +SLI
File this flight plan on PilotEdge
Remarks: PRACTICE RNAV
Altitude:
(Current/Filed)
3,000ft
Speed:
(Current/Filed)
110kts
Departed: 02-Jun-20 02:16 PM
Arrived: 02-Jun-20 03:04 PM
Distance/Time
Traveled:
16nm/0:48
Distance/Time
To Go:
Arrived

Flight Plot

Page will automatically refresh every two minutes.


Map Options




Map Legend


Flown Route
Filed Route
Departure Airport
Arrival Airport
Navaid (VOR, NDB)
Fix

Horizontal Profiles

Position Reports

Time Latitude Longitude Heading Altitude Ground
Speed
02-Jun-20 13:59 33.818224 -118.145979 90 35ft 0kts
02-Jun-20 14:00 33.818224 -118.145979 90 35ft 0kts
02-Jun-20 14:01 33.818164 -118.145972 260 35ft 0kts
02-Jun-20 14:02 33.818164 -118.145972 260 35ft 0kts
02-Jun-20 14:03 33.818164 -118.145972 260 35ft 0kts
02-Jun-20 14:04 33.818164 -118.145972 260 35ft 0kts
02-Jun-20 14:05 33.818164 -118.145972 260 35ft 0kts
02-Jun-20 14:06 33.818164 -118.145972 260 35ft 0kts
02-Jun-20 14:07 33.818164 -118.145972 260 35ft 0kts
02-Jun-20 14:08 33.818164 -118.145972 260 35ft 0kts
02-Jun-20 14:09 33.818164 -118.145972 260 35ft 0kts
02-Jun-20 14:10 33.818146 -118.146105 272 35ft 0kts
02-Jun-20 14:11 33.817276 -118.146990 219 37ft 2kts
02-Jun-20 14:12 33.821665 -118.148577 269 40ft 8kts
02-Jun-20 14:13 33.821594 -118.147741 88 40ft 37kts
02-Jun-20 14:14 33.821951 -118.144212 58 37ft 0kts
02-Jun-20 14:15 33.822897 -118.154086 265 261ft 53kts
02-Jun-20 14:16 33.818898 -118.173835 263 833ft 77kts
02-Jun-20 14:17 33.822671 -118.196337 272 1251ft 101kts
02-Jun-20 14:18 33.824335 -118.231371 268 744ft 72kts
02-Jun-20 14:19 33.823184 -118.254608 262 1326ft 68kts
02-Jun-20 14:20 33.816926 -118.272066 191 2173ft 68kts
02-Jun-20 14:21 33.798163 -118.272303 184 2938ft 74kts
02-Jun-20 14:28 33.691697 -118.070489 45 3040ft 108kts
02-Jun-20 14:29 33.720214 -118.053080 28 3042ft 118kts
02-Jun-20 14:30 33.747334 -118.030596 51 2995ft 118kts
02-Jun-20 14:31 33.772018 -118.007678 45 3121ft 110kts
02-Jun-20 14:32 33.793965 -117.978578 51 3007ft 119kts
02-Jun-20 14:33 33.814627 -117.947322 58 2898ft 125kts
02-Jun-20 14:34 33.835548 -117.917473 52 2975ft 120kts
02-Jun-20 14:35 33.856161 -117.887190 55 2994ft 119kts
02-Jun-20 14:36 33.863952 -117.852775 106 3010ft 106kts
02-Jun-20 14:37 33.854989 -117.818172 112 3010ft 106kts
02-Jun-20 14:38 33.846937 -117.783411 112 2950ft 114kts
02-Jun-20 14:39 33.833663 -117.750732 165 2813ft 111kts
02-Jun-20 14:40 33.813672 -117.765388 240 2971ft 101kts
02-Jun-20 14:41 33.802049 -117.792031 232 2664ft 82kts
02-Jun-20 14:42 33.787321 -117.815808 229 2727ft 89kts
02-Jun-20 14:47 33.829736 -117.947206 285 2973ft 102kts
02-Jun-20 14:48 33.849925 -117.954759 81 2780ft 119kts
02-Jun-20 14:49 33.853455 -117.920628 93 2962ft 101kts
02-Jun-20 14:50 33.855446 -117.885378 88 2977ft 113kts
02-Jun-20 14:51 33.857168 -117.848463 91 3060ft 109kts
02-Jun-20 14:52 33.856012 -117.811093 116 2965ft 113kts
02-Jun-20 14:53 33.842346 -117.778125 117 2953ft 111kts
02-Jun-20 14:54 33.829993 -117.744569 119 3014ft 109kts
02-Jun-20 14:55 33.815993 -117.727468 270 2947ft 105kts
02-Jun-20 14:56 33.829144 -117.757769 285 3063ft 105kts
02-Jun-20 14:57 33.814551 -117.784319 212 2872ft 108kts
02-Jun-20 14:58 33.793667 -117.801270 204 2930ft 98kts
02-Jun-20 14:59 33.763936 -117.811806 204 1777ft 102kts
02-Jun-20 15:00 33.738934 -117.828479 214 1628ft 110kts
02-Jun-20 15:01 33.711575 -117.848880 205 1377ft 120kts
02-Jun-20 15:02 33.684125 -117.863611 204 273ft 97kts
02-Jun-20 15:03 33.674233 -117.870890 265 60ft 9kts

Navigation Log

Ident Type
Flight plan parsing failed, navigation log unavailable